createdAt,value
2023-12-01T00:00:54.497Z,72.40
2023-12-01T00:03:46.439Z,73.90
2023-12-01T00:06:18.493Z,69.80
2023-12-01T00:08:50.299Z,69.80
2023-12-01T00:11:22.093Z,72.80
2023-12-01T00:13:53.893Z,72.50
2023-12-01T00:16:25.713Z,56.00
2023-12-01T00:18:57.686Z,51.30
2023-12-01T00:21:29.781Z,49.90
2023-12-01T00:24:01.707Z,50.50
2023-12-01T00:26:33.565Z,48.80
2023-12-01T00:29:05.737Z,60.90
2023-12-01T00:31:37.516Z,64.00
2023-12-01T00:34:09.479Z,70.50
2023-12-01T00:36:41.364Z,73.70
2023-12-01T00:39:13.635Z,71.90
2023-12-01T00:41:45.736Z,69.50
2023-12-01T00:44:17.819Z,71.00
2023-12-01T00:46:49.663Z,71.30
2023-12-01T00:49:21.525Z,71.20
2023-12-01T00:51:53.397Z,70.90
2023-12-01T00:54:25.613Z,65.90
2023-12-01T00:56:57.611Z,68.20
2023-12-01T00:59:29.389Z,68.20
2023-12-01T01:02:01.203Z,66.20
2023-12-01T01:04:33.176Z,62.70
2023-12-01T01:07:05.298Z,62.90
2023-12-01T01:09:37.198Z,57.10
2023-12-01T01:12:09.994Z,57.40
2023-12-01T01:14:41.820Z,59.00
2023-12-01T01:17:13.667Z,57.90
2023-12-01T01:20:03.713Z,58.70
2023-12-01T01:22:35.611Z,58.90
2023-12-01T01:25:09.262Z,56.50
2023-12-01T01:27:41.124Z,58.80
2023-12-01T01:30:14.053Z,59.00
2023-12-01T01:32:45.900Z,58.70
2023-12-01T01:35:17.912Z,57.10
2023-12-01T01:37:49.668Z,57.10
2023-12-01T01:40:21.492Z,44.60
2023-12-01T01:42:53.287Z,42.30
2023-12-01T01:45:25.108Z,41.60
2023-12-01T01:47:57.664Z,42.60
2023-12-01T01:50:29.548Z,41.60
2023-12-01T01:53:04.045Z,50.20
2023-12-01T01:55:35.921Z,53.10
2023-12-01T01:58:07.863Z,53.00
2023-12-01T02:00:39.785Z,52.70
2023-12-01T02:03:11.638Z,53.20
2023-12-01T02:05:43.465Z,54.20
2023-12-01T02:08:26.896Z,56.00
2023-12-01T02:10:59.692Z,54.90
2023-12-01T02:13:31.525Z,55.70
2023-12-01T02:16:03.625Z,55.10
2023-12-01T02:18:35.801Z,55.40
2023-12-01T02:21:08.566Z,53.80
2023-12-01T02:23:40.352Z,58.50
2023-12-01T02:26:12.079Z,53.20
2023-12-01T02:28:43.826Z,55.00
2023-12-01T02:31:15.697Z,54.60
2023-12-01T02:33:47.577Z,55.70
2023-12-01T02:36:20.765Z,57.30
2023-12-01T02:38:52.821Z,54.70
2023-12-01T02:41:24.590Z,53.80
2023-12-01T02:43:56.411Z,55.20
2023-12-01T02:46:28.367Z,56.90
2023-12-01T02:49:00.225Z,54.30
2023-12-01T02:51:32.079Z,52.90
2023-12-01T02:54:03.875Z,54.00
2023-12-01T02:56:35.622Z,39.70
2023-12-01T02:59:07.415Z,38.70
2023-12-01T03:01:39.370Z,37.10
2023-12-01T03:04:11.239Z,36.70
2023-12-01T03:06:43.224Z,40.10
2023-12-01T03:09:18.530Z,50.10
2023-12-01T03:11:51.120Z,51.20
2023-12-01T03:14:23.976Z,53.00
2023-12-01T03:16:57.657Z,55.10
2023-12-01T03:19:29.564Z,56.70
2023-12-01T03:22:01.319Z,54.60
2023-12-01T03:24:33.163Z,52.20
2023-12-01T03:27:05.237Z,54.60
2023-12-01T03:29:37.147Z,51.10
2023-12-01T03:32:09.160Z,54.30
2023-12-01T03:34:41.159Z,54.90
2023-12-01T03:37:12.979Z,52.10
2023-12-01T03:39:44.853Z,54.10
2023-12-01T03:42:16.716Z,51.20
2023-12-01T03:44:48.437Z,53.90
2023-12-01T03:47:20.182Z,50.80
2023-12-01T03:49:51.902Z,52.70
2023-12-01T03:52:23.703Z,54.30
2023-12-01T03:54:55.508Z,55.80
2023-12-01T03:57:28.587Z,56.20
2023-12-01T04:00:00.400Z,54.70
2023-12-01T04:02:32.468Z,55.20
2023-12-01T04:05:05.389Z,53.30
2023-12-01T04:07:37.785Z,53.70
2023-12-01T04:10:11.919Z,41.30
2023-12-01T04:12:46.039Z,39.40
2023-12-01T04:15:19.184Z,36.60
2023-12-01T04:17:51.718Z,36.00
2023-12-01T04:20:25.350Z,37.70
2023-12-01T04:23:00.945Z,48.80
2023-12-01T04:25:33.121Z,48.90
2023-12-01T04:28:06.206Z,52.20
2023-12-01T04:30:38.047Z,54.70
2023-12-01T04:33:10.197Z,50.00
2023-12-01T04:35:42.517Z,49.10
2023-12-01T04:38:14.351Z,48.30
2023-12-01T04:40:46.162Z,51.50
2023-12-01T04:43:19.034Z,51.60
2023-12-01T04:45:50.941Z,52.70
2023-12-01T04:48:22.859Z,52.30
2023-12-01T04:50:54.905Z,52.40
2023-12-01T04:53:27.324Z,52.80
2023-12-01T04:55:59.609Z,51.20
2023-12-01T04:58:31.416Z,50.80
2023-12-01T05:01:03.255Z,50.80
2023-12-01T05:03:35.296Z,52.50
2023-12-01T05:06:07.878Z,52.00
2023-12-01T05:08:39.594Z,52.00
2023-12-01T05:11:11.532Z,56.80
2023-12-01T05:13:43.505Z,55.40
2023-12-01T05:16:15.744Z,57.30
2023-12-01T05:18:47.934Z,61.60
2023-12-01T05:21:20.800Z,47.20
2023-12-01T05:23:52.646Z,43.00
2023-12-01T05:26:24.362Z,41.10
2023-12-01T05:28:56.557Z,39.00
2023-12-01T05:31:28.472Z,39.50
2023-12-01T05:34:05.357Z,53.20
2023-12-01T05:36:38.929Z,51.60
2023-12-01T05:39:14.260Z,73.20
2023-12-01T05:41:46.289Z,168.50
2023-12-01T05:44:18.249Z,82.90
2023-12-01T05:46:50.204Z,97.60
2023-12-01T05:49:22.038Z,105.60
2023-12-01T05:51:53.785Z,106.70
2023-12-01T05:54:25.656Z,85.90
2023-12-01T05:56:57.496Z,66.70
2023-12-01T05:59:29.238Z,60.30
2023-12-01T06:02:06.199Z,60.70
2023-12-01T06:04:38.611Z,62.80
2023-12-01T06:07:10.497Z,65.00
2023-12-01T06:09:42.549Z,59.30
2023-12-01T06:12:14.951Z,57.10
2023-12-01T06:14:46.694Z,80.50
2023-12-01T06:17:18.432Z,85.80
2023-12-01T06:19:50.169Z,62.50
2023-12-01T06:22:22.469Z,114.00
2023-12-01T06:24:54.252Z,74.30
2023-12-01T06:27:26.051Z,65.10
2023-12-01T06:29:57.782Z,48.60
2023-12-01T06:32:29.752Z,43.90
2023-12-01T06:35:01.571Z,43.30
2023-12-01T06:37:33.423Z,50.60
2023-12-01T06:40:12.688Z,55.90
2023-12-01T06:42:46.774Z,64.00
2023-12-01T06:45:19.686Z,66.10
2023-12-01T06:47:52.390Z,62.10
2023-12-01T06:50:24.678Z,64.10
2023-12-01T06:53:00.447Z,63.10
2023-12-01T06:55:32.575Z,65.20
2023-12-01T06:58:04.461Z,71.20
2023-12-01T07:00:38.176Z,65.00
2023-12-01T07:03:11.138Z,64.50
2023-12-01T07:08:17.260Z,60.40
2023-12-01T07:10:49.215Z,64.40
2023-12-01T07:13:21.122Z,64.50
2023-12-01T07:15:53.056Z,62.30
2023-12-01T07:18:25.480Z,59.90
2023-12-01T07:20:57.348Z,59.00
2023-12-01T07:23:30.048Z,61.20
2023-12-01T07:26:01.878Z,58.70
2023-12-01T07:28:33.633Z,54.30
2023-12-01T07:31:05.716Z,56.90
2023-12-01T07:33:38.165Z,57.80
2023-12-01T07:36:13.487Z,58.00
2023-12-01T07:38:47.145Z,57.60
2023-12-01T07:41:18.912Z,48.40
2023-12-01T07:43:53.303Z,49.80
2023-12-01T07:46:25.192Z,51.90
2023-12-01T07:49:08.195Z,70.10
2023-12-01T07:51:41.716Z,71.80
2023-12-01T07:54:13.751Z,78.20
2023-12-01T07:56:45.817Z,78.20
2023-12-01T07:59:17.618Z,68.90
2023-12-01T08:01:49.588Z,59.80
2023-12-01T08:04:22.054Z,55.60
2023-12-01T08:06:53.909Z,58.40
2023-12-01T08:09:25.771Z,55.20
2023-12-01T08:11:57.559Z,59.40
2023-12-01T08:14:29.337Z,57.10
2023-12-01T08:17:01.206Z,57.40
2023-12-01T08:19:34.920Z,62.70
2023-12-01T08:22:07.536Z,61.30
2023-12-01T08:24:42.078Z,62.00
2023-12-01T08:27:14.253Z,57.60
2023-12-01T08:29:46.093Z,53.40
2023-12-01T08:32:18.123Z,53.80
2023-12-01T08:34:51.912Z,51.40
2023-12-01T08:37:23.810Z,59.10
2023-12-01T08:39:55.697Z,55.30
2023-12-01T08:42:29.911Z,55.70
2023-12-01T08:45:01.734Z,48.90
2023-12-01T08:47:33.620Z,46.80
2023-12-01T08:50:09.074Z,43.80
2023-12-01T08:52:42.195Z,41.80
2023-12-01T08:55:14.418Z,44.90
2023-12-01T08:57:46.221Z,47.00
2023-12-01T09:00:23.353Z,49.70
2023-12-01T09:02:58.420Z,48.70
2023-12-01T09:05:30.527Z,50.00
2023-12-01T09:08:05.681Z,51.40
2023-12-01T09:10:37.732Z,54.60
2023-12-01T09:13:09.721Z,55.70
2023-12-01T09:15:42.207Z,49.90
2023-12-01T09:18:14.378Z,50.00
2023-12-01T09:20:46.506Z,47.10
2023-12-01T09:23:18.595Z,46.10
2023-12-01T09:25:50.625Z,48.80
2023-12-01T09:28:22.655Z,47.40
2023-12-01T09:30:55.636Z,48.00
2023-12-01T09:33:27.748Z,48.00
2023-12-01T09:36:00.540Z,46.90
2023-12-01T09:38:32.784Z,53.20
2023-12-01T09:41:04.729Z,51.60
2023-12-01T09:43:36.644Z,53.80
2023-12-01T09:46:13.062Z,52.00
2023-12-01T09:48:46.607Z,54.20
2023-12-01T09:51:18.486Z,53.50
2023-12-01T09:53:50.419Z,55.00
2023-12-01T09:56:22.580Z,53.30
2023-12-01T09:58:54.767Z,49.30
2023-12-01T10:01:26.776Z,55.10
2023-12-01T10:03:58.822Z,49.00
2023-12-01T10:06:30.850Z,46.60
2023-12-01T10:09:04.131Z,46.20
2023-12-01T10:11:36.404Z,42.40
2023-12-01T10:14:09.140Z,44.20
2023-12-01T10:16:41.596Z,45.60
2023-12-01T10:19:16.330Z,40.40
2023-12-01T10:21:51.013Z,36.60
2023-12-01T10:24:24.817Z,36.30
2023-12-01T10:27:03.076Z,34.60
2023-12-01T10:29:35.889Z,35.50
2023-12-01T10:32:12.550Z,33.70
2023-12-01T10:34:53.452Z,37.60
2023-12-01T10:37:26.097Z,34.40
2023-12-01T10:39:59.470Z,31.00
2023-12-01T10:42:32.122Z,30.30
2023-12-01T10:45:05.731Z,29.60
2023-12-01T10:50:10.176Z,30.60
2023-12-01T10:52:46.428Z,36.70
2023-12-01T10:55:18.228Z,37.90
2023-12-01T10:57:51.435Z,36.40
2023-12-01T11:00:32.165Z,37.00
2023-12-01T11:03:05.466Z,34.40
2023-12-01T11:05:38.990Z,33.10
2023-12-01T11:08:25.619Z,32.30
2023-12-01T11:11:08.870Z,32.90
2023-12-01T11:13:53.013Z,34.20
2023-12-01T11:16:24.914Z,31.80
2023-12-01T11:18:58.504Z,30.20
2023-12-01T11:24:27.161Z,30.30
2023-12-01T11:27:05.414Z,30.60
2023-12-01T11:29:38.780Z,29.30
2023-12-01T11:32:10.821Z,32.30
2023-12-01T11:35:10.628Z,28.90
2023-12-01T11:38:04.790Z,27.90
2023-12-01T11:43:17.559Z,27.90
2023-12-01T11:45:54.243Z,27.70
2023-12-01T11:48:26.290Z,28.70
2023-12-01T11:50:58.249Z,28.30
2023-12-01T11:53:33.263Z,29.70
2023-12-01T11:56:06.942Z,28.50
2023-12-01T11:58:38.802Z,31.40
2023-12-01T12:01:10.757Z,30.10
2023-12-01T12:03:42.852Z,31.80
2023-12-01T12:06:16.426Z,33.70
2023-12-01T12:11:19.731Z,27.50
2023-12-01T12:13:59.157Z,28.80
2023-12-01T12:16:31.388Z,27.90
2023-12-01T12:19:03.659Z,27.80
2023-12-01T12:21:36.721Z,29.20
2023-12-01T12:24:09.662Z,28.70
2023-12-01T12:26:41.644Z,29.60
2023-12-01T12:29:13.936Z,29.60
2023-12-01T12:31:51.370Z,29.70
2023-12-01T12:34:25.587Z,32.20
2023-12-01T12:36:57.850Z,30.50
2023-12-01T12:39:31.741Z,34.10
2023-12-01T12:42:03.769Z,29.40
2023-12-01T12:44:38.989Z,29.00
2023-12-01T12:47:13.336Z,29.10
2023-12-01T12:49:45.343Z,30.30
2023-12-01T12:52:17.143Z,27.90
2023-12-01T12:54:48.889Z,28.90
2023-12-01T12:57:20.692Z,30.70
2023-12-01T12:59:55.852Z,30.50
2023-12-01T13:02:27.832Z,28.50
2023-12-01T13:04:59.591Z,35.80
2023-12-01T13:07:31.339Z,39.20
2023-12-01T13:10:03.127Z,49.60
2023-12-01T13:12:35.012Z,60.80
2023-12-01T13:15:08.496Z,57.00
2023-12-01T13:17:40.432Z,55.80
2023-12-01T13:20:13.950Z,48.30
2023-12-01T13:22:45.834Z,49.60
2023-12-01T13:25:17.692Z,42.80
2023-12-01T13:27:50.815Z,54.70
2023-12-01T13:30:23.022Z,53.40
2023-12-01T13:32:55.490Z,81.20
2023-12-01T13:35:27.333Z,60.50
2023-12-01T13:37:59.209Z,44.80
2023-12-01T13:40:31.363Z,41.20
2023-12-01T13:43:03.814Z,44.80
2023-12-01T13:45:35.802Z,44.80
2023-12-01T13:48:08.561Z,69.70
2023-12-01T13:50:40.379Z,58.80
2023-12-01T13:53:12.202Z,52.10
2023-12-01T13:55:44.070Z,51.60
2023-12-01T13:58:16.808Z,50.00
2023-12-01T14:00:49.801Z,52.00
2023-12-01T14:03:27.545Z,42.70
2023-12-01T14:06:03.756Z,37.20
2023-12-01T14:08:35.674Z,31.50
2023-12-01T14:11:09.254Z,32.50
2023-12-01T14:16:13.948Z,47.20
2023-12-01T14:18:47.002Z,40.30
2023-12-01T14:21:19.281Z,34.40
2023-12-01T14:23:51.065Z,28.00
2023-12-01T14:26:22.824Z,25.10
2023-12-01T14:28:54.623Z,25.00
2023-12-01T14:31:26.634Z,27.10
2023-12-01T14:33:59.016Z,26.30
2023-12-01T14:36:31.065Z,23.80
2023-12-01T14:39:02.932Z,21.70
2023-12-01T14:41:34.810Z,26.00
2023-12-01T14:44:07.423Z,28.00
2023-12-01T14:46:39.301Z,33.90
2023-12-01T14:49:11.199Z,28.50
2023-12-01T14:51:43.141Z,23.10
2023-12-01T14:54:15.041Z,22.20
2023-12-01T14:56:47.207Z,23.40
2023-12-01T14:59:19.267Z,20.40
2023-12-01T15:01:53.315Z,22.60
2023-12-01T15:04:25.286Z,24.80
2023-12-01T15:07:14.031Z,27.50
2023-12-01T15:09:46.066Z,26.20
2023-12-01T15:12:18.840Z,24.40
2023-12-01T15:14:50.803Z,24.70
2023-12-01T15:17:22.562Z,25.80
2023-12-01T15:19:54.409Z,23.90
2023-12-01T15:22:26.297Z,23.40
2023-12-01T15:24:58.111Z,26.10
2023-12-01T15:27:30.113Z,24.90
2023-12-01T15:30:02.019Z,25.40
2023-12-01T15:32:33.947Z,28.00
2023-12-01T15:35:06.339Z,27.70
2023-12-01T15:37:38.623Z,26.80
2023-12-01T15:40:14.285Z,22.10
2023-12-01T15:42:46.192Z,20.80
2023-12-01T15:45:18.712Z,23.00
2023-12-01T15:47:50.603Z,23.30
2023-12-01T15:50:22.424Z,22.90
2023-12-01T15:52:57.405Z,16.60
2023-12-01T15:55:29.527Z,16.30
2023-12-01T15:58:01.252Z,15.90
2023-12-01T16:00:33.851Z,16.60
2023-12-01T16:03:07.228Z,20.10
2023-12-01T16:05:39.643Z,20.30
2023-12-01T16:08:11.508Z,20.60
2023-12-01T16:10:43.795Z,21.10
2023-12-01T16:13:15.578Z,21.00
2023-12-01T16:15:47.437Z,21.00
2023-12-01T16:18:21.605Z,26.00
2023-12-01T16:20:53.756Z,25.80
2023-12-01T16:23:25.656Z,23.90
2023-12-01T16:25:57.412Z,22.20
2023-12-01T16:28:29.134Z,21.60
2023-12-01T16:31:00.921Z,23.50
2023-12-01T16:33:33.347Z,23.10
2023-12-01T16:36:30.049Z,22.80
2023-12-01T16:38:58.847Z,21.30
2023-12-01T16:41:30.745Z,23.30
2023-12-01T16:44:02.498Z,22.30
2023-12-01T16:46:34.348Z,22.50
2023-12-01T16:49:06.338Z,18.80
2023-12-01T16:51:38.262Z,20.60
2023-12-01T16:54:10.138Z,19.80
2023-12-01T16:56:42.096Z,18.80
2023-12-01T16:59:13.830Z,24.10
2023-12-01T17:01:46.769Z,21.10
2023-12-01T17:04:18.746Z,19.90
2023-12-01T17:06:50.574Z,20.70
2023-12-01T17:09:22.510Z,23.00
2023-12-01T17:11:54.342Z,22.00
2023-12-01T17:14:34.359Z,21.30
2023-12-01T17:17:11.474Z,22.30
2023-12-01T17:19:43.293Z,23.80
2023-12-01T17:22:15.132Z,26.70
2023-12-01T17:24:47.056Z,24.60
2023-12-01T17:27:18.968Z,25.20
2023-12-01T17:29:50.914Z,25.60
2023-12-01T17:32:22.701Z,26.80
2023-12-01T17:34:54.438Z,30.00
2023-12-01T17:37:28.357Z,24.10
2023-12-01T17:40:00.324Z,28.50
2023-12-01T17:42:34.073Z,25.40
2023-12-01T17:45:07.565Z,22.50
2023-12-01T17:47:39.357Z,23.90
2023-12-01T17:50:12.283Z,21.30
2023-12-01T17:52:44.157Z,22.30
2023-12-01T17:55:16.008Z,23.70
2023-12-01T17:57:48.944Z,23.20
2023-12-01T18:00:22.104Z,23.60
2023-12-01T18:02:53.973Z,23.70
2023-12-01T18:05:25.857Z,22.80
2023-12-01T18:07:57.677Z,21.50
2023-12-01T18:10:29.423Z,21.60
2023-12-01T18:13:01.308Z,23.30
2023-12-01T18:15:33.135Z,21.60
2023-12-01T18:18:04.996Z,24.90
2023-12-01T18:20:36.795Z,24.60
2023-12-01T18:23:08.554Z,23.60
2023-12-01T18:25:40.390Z,18.40
2023-12-01T18:28:12.196Z,16.70
2023-12-01T18:30:44.360Z,17.60
2023-12-01T18:33:16.628Z,24.20
2023-12-01T18:35:48.619Z,23.50
2023-12-01T18:38:20.480Z,21.80
2023-12-01T18:40:52.348Z,25.30
2023-12-01T18:43:24.162Z,25.50
2023-12-01T18:45:56.232Z,25.70
2023-12-01T18:48:28.195Z,25.70
2023-12-01T18:51:00.160Z,25.60
2023-12-01T18:53:32.086Z,27.30
2023-12-01T18:56:04.158Z,27.30
2023-12-01T18:58:37.318Z,28.40
2023-12-01T19:01:10.224Z,31.20
2023-12-01T19:03:42.312Z,31.70
2023-12-01T19:06:14.635Z,23.30
2023-12-01T19:08:46.527Z,22.10
2023-12-01T19:11:18.615Z,24.00
2023-12-01T19:13:50.460Z,22.60
2023-12-01T19:16:22.298Z,27.70
2023-12-01T19:18:54.148Z,28.30
2023-12-01T19:21:26.123Z,29.60
2023-12-01T19:23:58.550Z,30.60
2023-12-01T19:26:30.357Z,32.30
2023-12-01T19:29:02.127Z,29.50
2023-12-01T19:31:34.234Z,32.40
2023-12-01T19:34:06.146Z,32.60
2023-12-01T19:36:41.363Z,31.00
2023-12-01T19:39:13.176Z,31.40
2023-12-01T19:41:45.668Z,31.50
2023-12-01T19:44:18.083Z,35.90
2023-12-01T19:46:50.119Z,33.10
2023-12-01T19:49:22.128Z,31.00
2023-12-01T19:51:54.049Z,24.70
2023-12-01T19:54:25.982Z,25.20
2023-12-01T19:56:57.841Z,24.90
2023-12-01T19:59:29.710Z,27.20
2023-12-01T20:02:01.647Z,30.30
2023-12-01T20:04:33.397Z,34.70
2023-12-01T20:07:05.534Z,34.90
2023-12-01T20:09:37.334Z,34.60
2023-12-01T20:12:10.251Z,34.10
2023-12-01T20:14:42.068Z,37.10
2023-12-01T20:17:14.105Z,37.20
2023-12-01T20:19:46.064Z,35.90
2023-12-01T20:22:17.848Z,36.20
2023-12-01T20:24:50.115Z,38.60
2023-12-01T20:27:21.947Z,36.10
2023-12-01T20:29:55.322Z,34.40
2023-12-01T20:32:27.162Z,37.20
2023-12-01T20:34:59.690Z,30.00
2023-12-01T20:37:31.615Z,25.90
2023-12-01T20:40:03.686Z,24.80
2023-12-01T20:42:35.716Z,34.90
2023-12-01T20:45:09.525Z,35.10
2023-12-01T20:47:41.449Z,36.50
2023-12-01T20:50:13.373Z,38.10
2023-12-01T20:52:46.799Z,38.90
2023-12-01T20:55:22.005Z,34.70
2023-12-01T20:57:53.909Z,39.50
2023-12-01T21:00:28.736Z,38.80
2023-12-01T21:03:00.675Z,40.50
2023-12-01T21:05:32.712Z,37.10
2023-12-01T21:08:04.602Z,41.40
2023-12-01T21:10:36.408Z,31.80
2023-12-01T21:13:08.295Z,30.10
2023-12-01T21:15:40.126Z,30.00
2023-12-01T21:18:12.004Z,29.30
2023-12-01T21:20:44.230Z,35.70
2023-12-01T21:23:16.217Z,36.30
2023-12-01T21:25:48.067Z,38.20
2023-12-01T21:28:19.782Z,39.30
2023-12-01T21:30:51.621Z,37.20
2023-12-01T21:33:24.280Z,39.80
2023-12-01T21:35:56.449Z,37.60
2023-12-01T21:38:28.230Z,40.80
2023-12-01T21:41:00.026Z,41.50
2023-12-01T21:43:31.897Z,38.90
2023-12-01T21:46:03.640Z,41.40
2023-12-01T21:48:35.610Z,37.40
2023-12-01T21:51:09.016Z,37.50
2023-12-01T21:53:41.079Z,34.60
2023-12-01T21:56:13.757Z,28.20
2023-12-01T21:58:45.702Z,29.10
2023-12-01T22:01:17.604Z,28.90
2023-12-01T22:03:49.639Z,27.60
2023-12-01T22:06:21.465Z,34.80
2023-12-01T22:08:53.330Z,33.60
2023-12-01T22:11:25.543Z,32.50
2023-12-01T22:13:57.715Z,35.70
2023-12-01T22:16:31.817Z,34.80
2023-12-01T22:19:03.825Z,34.80
2023-12-01T22:21:37.629Z,36.10
2023-12-01T22:24:10.713Z,35.30
2023-12-01T22:26:42.552Z,36.10
2023-12-01T22:29:16.263Z,37.90
2023-12-01T22:31:47.995Z,37.80
2023-12-01T22:34:19.951Z,36.80
2023-12-01T22:36:51.711Z,41.10
2023-12-01T22:39:23.586Z,40.70
2023-12-01T22:41:55.339Z,33.50
2023-12-01T22:44:27.606Z,35.50
2023-12-01T22:47:02.055Z,33.00
2023-12-01T22:49:33.996Z,28.70
2023-12-01T22:52:06.195Z,35.30
2023-12-01T22:54:37.909Z,34.70
2023-12-01T22:57:09.741Z,34.30
2023-12-01T22:59:41.571Z,34.40
2023-12-01T23:02:13.420Z,37.00
2023-12-01T23:04:45.384Z,36.10
2023-12-01T23:07:17.196Z,36.70
2023-12-01T23:09:49.025Z,36.30
2023-12-01T23:12:20.812Z,36.00
2023-12-01T23:14:52.744Z,35.50
2023-12-01T23:17:24.494Z,34.40
2023-12-01T23:19:56.291Z,37.40
2023-12-01T23:22:28.202Z,34.80
2023-12-01T23:24:59.960Z,25.50
2023-12-01T23:27:35.590Z,26.60
2023-12-01T23:30:09.819Z,28.80
2023-12-01T23:32:41.658Z,27.00
2023-12-01T23:35:13.612Z,32.10
2023-12-01T23:37:45.394Z,33.30
2023-12-01T23:40:17.563Z,33.10
2023-12-01T23:42:49.418Z,32.20
2023-12-01T23:45:21.279Z,32.60
2023-12-01T23:47:53.274Z,34.10
2023-12-01T23:50:25.440Z,33.30
2023-12-01T23:52:57.335Z,32.80
2023-12-01T23:55:29.160Z,34.90
2023-12-01T23:58:01.004Z,33.00
